Time;durP1;ratioP1;P1;durP2;ratioP2;P2;SDS_P1;SDS_P2;PMS_P1;PMS_P2;Temp;Humidity;BMP_temperature;BMP_pressure;BME280_temperature;BME280_humidity;BME280_pressure;Samples;Min_cycle;Max_cycle;Signal;HPM_P1;HPM_P2
2021/08/06 00:01:53;;;;;;;;;;;;;;;-142.75;52.00;75208.34;5074943;28;19920;-75
2021/08/06 00:04:18;;;;;;;;;;;;;;;-142.75;52.16;75204.41;5071509;28;19917;-75
2021/08/06 00:06:44;;;;;;;;;;;;;;;-142.75;51.78;75198.50;5080879;28;20408;-76
2021/08/06 00:09:12;;;;;;;;;;;;;;;-142.75;51.85;75200.47;5086527;28;19916;-76
2021/08/06 00:11:37;;;;;;;;;;;;;;;-142.75;52.06;75208.34;5092032;28;19920;-76
2021/08/06 00:14:02;;;;;;;;;;;;;;;-142.75;52.38;75210.31;5073921;28;19924;-77
2021/08/06 00:16:28;;;;;;;;;;;;;;;-142.75;52.35;75206.38;5083607;28;19920;-77
2021/08/06 00:18:53;;;;;;;;;;;;;;;-142.75;52.42;75198.50;5087030;28;19920;-76
2021/08/06 00:21:19;;;;;;;;;;;;;;;-142.75;52.79;75214.25;5079682;28;19916;-76
2021/08/06 00:23:45;;;;;;;;;;;;;;;-142.75;53.03;75194.56;5077577;28;19924;-75
2021/08/06 00:26:10;;;;;;;;;;;;;;;-142.75;52.94;75204.41;5084705;28;20304;-76
2021/08/06 00:28:35;;;;;;;;;;;;;;;-142.75;53.11;75204.41;5080379;28;19916;-75
2021/08/06 00:31:01;;;;;;;;;;;;;;;-142.75;53.13;75220.16;5077044;28;19938;-76
2021/08/06 00:33:26;;;;;;;;;;;;;;;-142.75;53.04;75210.31;5075045;28;19924;-76
2021/08/06 00:35:51;;;;;;;;;;;;;;;-142.75;53.18;75220.16;5089203;28;20346;-75
2021/08/06 00:38:16;;;;;;;;;;;;;;;-142.75;52.98;75222.13;5090646;28;19916;-76
2021/08/06 00:40:41;;;;;;;;;;;;;;;-142.75;53.20;75208.34;5090006;28;20341;-76
2021/08/06 00:43:07;;;;;;;;;;;;;;;-142.75;54.21;75237.84;5087257;28;19917;-74
2021/08/06 00:45:32;;;;;;;;;;;;;;;-142.75;54.50;75224.09;5084364;28;20301;-78
2021/08/06 00:47:57;;;;;;;;;;;;;;;-142.75;54.63;75228.00;5078741;28;19962;-76
2021/08/06 00:50:23;;;;;;;;;;;;;;;-142.75;54.70;75231.94;5086860;28;20309;-75
2021/08/06 00:52:49;;;;;;;;;;;;;;;-142.75;55.17;75243.75;5084478;28;20435;-76
2021/08/06 00:55:14;;;;;;;;;;;;;;;-142.75;55.55;75259.50;5077142;28;19920;-76
2021/08/06 00:57:40;;;;;;;;;;;;;;;-142.75;55.38;75259.50;5080847;28;19927;-75
2021/08/06 01:00:05;;;;;;;;;;;;;;;-142.75;55.72;75243.75;5084185;28;20390;-76
2021/08/06 01:02:33;;;;;;;;;;;;;;;-142.75;55.80;75243.75;5082618;28;19916;-75
2021/08/06 01:05:02;;;;;;;;;;;;;;;-142.75;55.82;75251.63;5074579;28;19951;-77
2021/08/06 01:07:31;;;;;;;;;;;;;;;-142.75;55.96;75239.81;5072809;28;19964;-76
2021/08/06 01:09:59;;;;;;;;;;;;;;;-142.75;56.29;75253.59;5087724;28;19969;-77
2021/08/06 01:12:32;;;;;;;;;;;;;;;-142.75;56.78;75259.50;5089937;28;20384;-76
2021/08/06 01:14:59;;;;;;;;;;;;;;;-142.75;57.60;75251.63;5078836;28;19916;-76
2021/08/06 01:17:25;;;;;;;;;;;;;;;-142.75;57.92;75263.44;5082866;28;20425;-77
2021/08/06 01:19:54;;;;;;;;;;;;;;;-142.75;58.22;75259.50;5082940;28;20378;-77
2021/08/06 01:22:26;;;;;;;;;;;;;;;-142.75;58.92;75257.53;5077079;28;19916;-77
2021/08/06 01:25:15;;;;;;;;;;;;;;;-142.75;59.18;75249.66;5087834;28;19923;-76
2021/08/06 01:27:41;;;;;;;;;;;;;;;-142.75;59.13;75251.63;5082861;28;20396;-76
2021/08/06 01:30:07;;;;;;;;;;;;;;;-142.75;58.73;75255.56;5074093;28;19956;-76
2021/08/06 01:32:32;;;;;;;;;;;;;;;-142.75;58.96;75259.50;5084509;28;19971;-76
2021/08/06 01:34:57;;;;;;;;;;;;;;;-142.75;58.17;75265.41;5085245;28;19958;-76
2021/08/06 01:37:23;;;;;;;;;;;;;;;-142.75;58.41;75259.50;5070051;28;20197;-75
2021/08/06 01:39:48;;;;;;;;;;;;;;;-142.75;58.38;75255.56;5074507;28;19916;-75
2021/08/06 01:42:22;;;;;;;;;;;;;;;-142.75;58.28;75263.44;5075055;28;19924;-75
2021/08/06 01:44:51;;;;;;;;;;;;;;;-142.75;57.92;75243.75;5080515;28;19935;-77
2021/08/06 01:47:19;;;;;;;;;;;;;;;-142.75;57.86;75259.50;5073307;28;19923;-76
2021/08/06 01:49:47;;;;;;;;;;;;;;;-142.75;58.41;75275.25;5079254;28;19916;-78
2021/08/06 01:52:13;;;;;;;;;;;;;;;-142.75;58.18;75263.44;5070642;28;19917;-76
2021/08/06 01:54:39;;;;;;;;;;;;;;;-142.75;58.04;75257.53;5082085;28;19924;-76
2021/08/06 01:57:06;;;;;;;;;;;;;;;-142.75;58.56;75265.41;5082821;28;19927;-76
2021/08/06 01:59:32;;;;;;;;;;;;;;;-142.75;58.35;75275.25;5072622;28;19916;-77
2021/08/06 02:01:57;;;;;;;;;;;;;;;-142.75;58.57;75277.22;5081781;28;19930;-76
2021/08/06 02:04:23;;;;;;;;;;;;;;;-142.75;58.03;75249.66;5069665;28;19931;-75
2021/08/06 02:06:48;;;;;;;;;;;;;;;-142.75;58.38;75255.56;5081827;28;19916;-76
2021/08/06 02:09:17;;;;;;;;;;;;;;;-142.75;58.21;75255.56;5079372;28;19920;-74
2021/08/06 02:11:43;;;;;;;;;;;;;;;-142.75;58.05;75253.59;5076996;28;19916;-76
2021/08/06 02:14:09;;;;;;;;;;;;;;;-142.75;58.07;75247.69;5074009;28;19939;-76
2021/08/06 02:16:34;;;;;;;;;;;;;;;-142.75;58.07;75249.66;5089784;28;19928;-75
2021/08/06 02:19:00;;;;;;;;;;;;;;;-142.75;57.60;75231.94;5074440;28;19942;-75
2021/08/06 02:21:30;;;;;;;;;;;;;;;-142.75;57.57;75235.88;5078607;28;19916;-76
2021/08/06 02:23:57;;;;;;;;;;;;;;;-142.75;57.22;75231.94;5081527;28;19974;-76
2021/08/06 02:26:23;;;;;;;;;;;;;;;-142.75;57.30;75229.97;5070924;28;19924;-75
2021/08/06 02:28:50;;;;;;;;;;;;;;;-142.75;57.50;75239.81;5081510;28;20333;-77
2021/08/06 02:31:16;;;;;;;;;;;;;;;-142.75;57.01;75220.16;5077928;28;19924;-76
2021/08/06 02:33:42;;;;;;;;;;;;;;;-142.75;57.10;75220.16;5082809;28;20386;-75
2021/08/06 02:36:07;;;;;;;;;;;;;;;-142.75;57.57;75224.09;5081418;28;19964;-75
2021/08/06 02:38:34;;;;;;;;;;;;;;;-142.75;58.04;75235.88;5091397;28;19916;-76
2021/08/06 02:40:59;;;;;;;;;;;;;;;-142.75;58.68;75239.81;5074608;28;20049;-76
2021/08/06 02:43:24;;;;;;;;;;;;;;;-142.75;59.82;75261.47;5086665;28;20011;-76
2021/08/06 02:45:50;;;;;;;;;;;;;;;-142.75;61.18;75277.22;5079360;28;20746;-76
2021/08/06 02:48:16;;;;;;;;;;;;;;;-142.75;61.74;75292.97;5085802;28;20301;-76
2021/08/06 02:50:41;;;;;;;;;;;;;;;-142.75;62.19;75291.00;5092333;28;20412;-76
2021/08/06 02:53:06;;;;;;;;;;;;;;;-142.75;62.37;75291.00;5077235;28;19916;-77
2021/08/06 02:55:31;;;;;;;;;;;;;;;-142.75;62.78;75300.81;5085169;28;19916;-75
2021/08/06 02:57:57;;;;;;;;;;;;;;;-142.75;62.80;75289.03;5084513;28;19927;-75
2021/08/06 03:00:22;;;;;;;;;;;;;;;-142.75;62.70;75281.16;5083757;28;20389;-76
2021/08/06 03:02:47;;;;;;;;;;;;;;;-142.75;62.65;75281.16;5076220;28;19935;-77
2021/08/06 03:05:12;;;;;;;;;;;;;;;-142.75;62.89;75287.06;5082659;28;19920;-75
2021/08/06 03:07:37;;;;;;;;;;;;;;;-142.75;62.89;75287.06;5079871;28;19920;-76
2021/08/06 03:10:04;;;;;;;;;;;;;;;-142.75;63.23;75292.97;5088821;28;19959;-76
2021/08/06 03:12:29;;;;;;;;;;;;;;;-142.75;63.58;75291.00;5077984;28;19917;-75
2021/08/06 03:14:54;;;;;;;;;;;;;;;-142.75;63.66;75291.00;5080782;28;19916;-75
2021/08/06 03:17:19;;;;;;;;;;;;;;;-142.75;63.67;75292.97;5078193;28;19920;-76
2021/08/06 03:19:45;;;;;;;;;;;;;;;-142.75;63.79;75289.03;5074974;28;20309;-77
2021/08/06 03:22:10;;;;;;;;;;;;;;;-142.75;63.80;75289.03;5073880;28;19917;-76
2021/08/06 03:24:35;;;;;;;;;;;;;;;-142.75;63.76;75287.06;5080444;28;20397;-76
2021/08/06 03:27:00;;;;;;;;;;;;;;;-142.75;63.70;75283.13;5083747;28;19923;-76
2021/08/06 03:29:26;;;;;;;;;;;;;;;-142.75;63.80;75277.22;5087928;28;19916;-76
2021/08/06 03:31:51;;;;;;;;;;;;;;;-142.75;63.84;75287.06;5089773;28;20348;-75
2021/08/06 03:34:16;;;;;;;;;;;;;;;-142.75;63.77;75283.13;5074942;28;20370;-76
2021/08/06 03:36:41;;;;;;;;;;;;;;;-142.75;64.34;75294.94;5088687;28;20416;-76
2021/08/06 03:39:06;;;;;;;;;;;;;;;-142.75;64.50;75283.13;5083370;28;19916;-76
2021/08/06 03:41:32;;;;;;;;;;;;;;;-142.75;64.49;75271.31;5087262;28;19916;-77
2021/08/06 03:43:57;;;;;;;;;;;;;;;-142.75;64.60;75289.03;5082252;28;19931;-76
2021/08/06 03:46:22;;;;;;;;;;;;;;;-142.75;64.90;75304.75;5078632;28;20011;-76
2021/08/06 03:48:47;;;;;;;;;;;;;;;-142.75;65.42;75306.72;5082314;28;20341;-77
2021/08/06 03:51:13;;;;;;;;;;;;;;;-142.75;65.43;75310.66;5078022;28;19924;-75
2021/08/06 03:53:38;;;;;;;;;;;;;;;-142.75;65.74;75314.59;5085319;28;19916;-77
2021/08/06 03:56:03;;;;;;;;;;;;;;;-142.75;65.83;75318.53;5085687;28;19924;-76
2021/08/06 03:58:28;;;;;;;;;;;;;;;-142.75;65.70;75318.53;5082067;28;19916;-76
2021/08/06 04:00:54;;;;;;;;;;;;;;;-142.75;65.68;75324.44;5078573;28;19967;-75
2021/08/06 04:03:19;;;;;;;;;;;;;;;-142.75;65.69;75338.22;5086510;28;19961;-76
2021/08/06 04:05:44;;;;;;;;;;;;;;;-142.75;66.13;75359.88;5077373;28;20006;-74
2021/08/06 04:08:09;;;;;;;;;;;;;;;-142.75;66.14;75353.97;5091564;28;19922;-76
2021/08/06 04:10:35;;;;;;;;;;;;;;;-142.75;66.20;75353.97;5085272;28;19930;-75
2021/08/06 04:13:01;;;;;;;;;;;;;;;-142.75;66.24;75352.00;5080718;28;19923;-76
2021/08/06 04:15:26;;;;;;;;;;;;;;;-142.75;66.22;75348.06;5080993;28;20392;-76
2021/08/06 04:17:51;;;;;;;;;;;;;;;-142.75;66.20;75348.06;5094665;22;20013;-75
2021/08/06 04:20:17;;;;;;;;;;;;;;;-142.75;66.27;75359.88;5082584;28;20377;-74
2021/08/06 04:22:42;;;;;;;;;;;;;;;-142.75;66.36;75359.88;5091337;28;19915;-74
2021/08/06 04:25:08;;;;;;;;;;;;;;;-142.75;66.27;75340.19;5083892;28;19979;-74
2021/08/06 04:27:33;;;;;;;;;;;;;;;-142.75;66.12;75346.09;5077354;28;19916;-74
2021/08/06 04:29:59;;;;;;;;;;;;;;;-142.75;66.11;75342.16;5051383;28;19925;-74
2021/08/06 04:32:24;;;;;;;;;;;;;;;-142.75;65.86;75340.19;5051962;28;19916;-73
2021/08/06 04:34:49;;;;;;;;;;;;;;;-142.75;65.71;75338.22;5065506;28;19943;-74
2021/08/06 04:37:14;;;;;;;;;;;;;;;-142.75;65.88;75338.22;5071548;28;19920;-73
2021/08/06 04:39:39;;;;;;;;;;;;;;;-142.75;66.26;75355.94;5071473;28;19916;-73
2021/08/06 04:42:05;;;;;;;;;;;;;;;-142.75;66.41;75355.94;5056911;28;19924;-73
2021/08/06 04:44:34;;;;;;;;;;;;;;;-142.75;66.17;75350.03;5070469;28;19970;-74
2021/08/06 04:46:59;;;;;;;;;;;;;;;-142.75;65.91;75346.09;5068195;28;19966;-74
2021/08/06 04:49:25;;;;;;;;;;;;;;;-142.75;65.86;75336.25;5068799;28;19920;-75
2021/08/06 04:51:50;;;;;;;;;;;;;;;-142.75;65.61;75352.00;5061772;28;19920;-74
2021/08/06 04:54:15;;;;;;;;;;;;;;;-142.75;65.47;75346.09;5069821;28;19994;-75
2021/08/06 04:56:40;;;;;;;;;;;;;;;-142.75;65.30;75352.00;5057153;28;19921;-74
2021/08/06 04:59:05;;;;;;;;;;;;;;;-142.75;65.31;75348.06;5068554;28;19973;-73
2021/08/06 05:01:31;;;;;;;;;;;;;;;-142.75;65.37;75375.59;5052844;28;20294;-74
2021/08/06 05:03:56;;;;;;;;;;;;;;;-142.75;65.66;75361.84;5063007;28;20014;-74
2021/08/06 05:06:22;;;;;;;;;;;;;;;-142.75;65.47;75342.16;5061267;28;19924;-74
2021/08/06 05:08:49;;;;;;;;;;;;;;;-142.75;65.50;75348.06;5064435;28;20011;-74
2021/08/06 05:11:14;;;;;;;;;;;;;;;-142.75;65.28;75338.22;5055621;28;19916;-74
2021/08/06 05:13:40;;;;;;;;;;;;;;;-142.75;65.21;75344.13;5066433;28;19939;-75
2021/08/06 05:16:05;;;;;;;;;;;;;;;-142.75;65.18;75342.16;5053517;28;19928;-73
2021/08/06 05:18:30;;;;;;;;;;;;;;;-142.75;65.12;75342.16;5050792;28;19916;-73
2021/08/06 05:20:55;;;;;;;;;;;;;;;-142.75;64.83;75330.34;5052114;28;19917;-74
2021/08/06 05:23:20;;;;;;;;;;;;;;;-142.75;64.66;75330.34;5060591;28;20397;-74
2021/08/06 05:25:46;;;;;;;;;;;;;;;-142.75;64.54;75332.31;5069220;28;19928;-74
2021/08/06 05:28:11;;;;;;;;;;;;;;;-142.75;64.94;75338.22;5066969;28;19939;-74
2021/08/06 05:30:36;;;;;;;;;;;;;;;-142.75;64.62;75322.47;5050380;28;19917;-73
2021/08/06 05:33:02;;;;;;;;;;;;;;;-142.75;64.72;75322.47;5057452;28;19971;-74
2021/08/06 05:35:27;;;;;;;;;;;;;;;-142.75;64.55;75324.44;5062189;28;19967;-74
2021/08/06 05:37:53;;;;;;;;;;;;;;;-142.75;64.17;75336.25;5068303;28;20285;-73
2021/08/06 05:40:19;;;;;;;;;;;;;;;-142.75;64.51;75338.22;5070484;28;19990;-74
2021/08/06 05:42:44;;;;;;;;;;;;;;;-142.75;64.38;75338.22;5069685;28;19920;-74
2021/08/06 05:45:10;;;;;;;;;;;;;;;-142.75;64.41;75342.16;5068459;28;19962;-74
2021/08/06 05:47:45;;;;;;;;;;;;;;;-142.75;64.36;75328.38;5070105;28;19951;-75
2021/08/06 05:50:11;;;;;;;;;;;;;;;-142.75;64.44;75328.38;5069927;28;19974;-73
2021/08/06 05:52:36;;;;;;;;;;;;;;;-142.75;63.95;75328.38;5068851;28;20362;-74
2021/08/06 05:55:01;;;;;;;;;;;;;;;-142.75;63.74;75318.53;5070158;28;20306;-73
2021/08/06 05:57:26;;;;;;;;;;;;;;;-142.75;63.45;75316.56;5064820;28;19955;-74
2021/08/06 05:59:52;;;;;;;;;;;;;;;-142.75;63.32;75314.59;5049921;28;19925;-72
2021/08/06 06:02:17;;;;;;;;;;;;;;;-142.75;63.52;75294.94;5049981;28;20432;-73
2021/08/06 06:04:42;;;;;;;;;;;;;;;-142.75;63.17;75283.13;5050583;28;20344;-74
2021/08/06 06:07:07;;;;;;;;;;;;;;;-142.75;62.48;75283.13;5048405;28;20374;-74
2021/08/06 06:09:32;;;;;;;;;;;;;;;-142.75;62.43;75267.38;5050124;28;19932;-74
2021/08/06 06:11:57;;;;;;;;;;;;;;;-142.75;62.15;75247.69;5059573;28;19979;-74
2021/08/06 06:14:23;;;;;;;;;;;;;;;-142.75;61.21;75202.44;5068539;28;19916;-75
2021/08/06 06:16:48;;;;;;;;;;;;;;;-142.75;59.99;75143.41;5059776;28;20481;-74
2021/08/06 06:19:13;;;;;;;;;;;;;;;-142.75;59.04;75149.31;5048874;28;19973;-73
2021/08/06 06:21:38;;;;;;;;;;;;;;;-142.75;59.07;75133.56;5048544;28;19928;-74
2021/08/06 06:24:04;;;;;;;;;;;;;;;-142.75;58.66;75129.63;5049069;28;19928;-75
2021/08/06 06:26:29;;;;;;;;;;;;;;;-142.75;58.55;75111.91;5048758;28;20386;-74
2021/08/06 06:28:54;;;;;;;;;;;;;;;-142.75;58.78;75115.84;5047266;28;19917;-73
2021/08/06 06:31:19;;;;;;;;;;;;;;;-142.75;58.70;75098.16;5048490;28;19960;-73
2021/08/06 06:33:44;;;;;;;;;;;;;;;-142.75;57.83;75078.47;5048904;28;19921;-73
2021/08/06 06:36:10;;;;;;;;;;;;;;;-142.75;57.14;75033.22;5048006;28;19921;-74
2021/08/06 06:38:35;;;;;;;;;;;;;;;-142.75;56.49;75033.22;5048515;28;20306;-73
2021/08/06 06:41:00;;;;;;;;;;;;;;;-142.75;56.45;75009.59;5048542;28;19924;-74
2021/08/06 06:43:25;;;;;;;;;;;;;;;-142.75;55.85;75046.97;5047125;28;20011;-74
2021/08/06 06:45:50;;;;;;;;;;;;;;;-142.75;56.04;75070.59;5045862;28;19956;-74
2021/08/06 06:48:16;;;;;;;;;;;;;;;-142.75;55.64;75098.16;5046708;28;20325;-73
2021/08/06 06:50:41;;;;;;;;;;;;;;;-142.75;56.25;75072.56;5048383;28;19952;-73
2021/08/06 06:53:06;;;;;;;;;;;;;;;-142.75;56.40;74974.19;5048576;28;19917;-72
2021/08/06 06:55:31;;;;;;;;;;;;;;;-142.75;53.25;74919.09;5048741;28;19917;-73
2021/08/06 06:57:57;;;;;;;;;;;;;;;-142.75;52.69;74842.34;5046866;28;20301;-75
2021/08/06 07:00:29;;;;;;;;;;;;;;;-142.75;51.47;74765.59;5048275;28;19970;-75
2021/08/06 07:02:55;;;;;;;;;;;;;;;-142.75;49.48;74681.00;5068403;28;19981;-75
2021/08/06 07:05:20;;;;;;;;;;;;;;;-142.75;47.52;74651.50;5067861;28;19916;-75
2021/08/06 07:07:46;;;;;;;;;;;;;;;-142.75;47.62;74553.13;5059419;28;19920;-75
2021/08/06 07:10:11;;;;;;;;;;;;;;;-142.75;46.18;74568.84;5047710;28;19917;-75
2021/08/06 07:12:38;;;;;;;;;;;;;;;-142.75;46.36;74665.25;5046971;28;19948;-75
2021/08/06 07:15:04;;;;;;;;;;;;;;;-142.75;47.28;74728.22;5048558;28;20314;-75
2021/08/06 07:17:33;;;;;;;;;;;;;;;-142.75;48.61;74850.22;5060880;28;19925;-74
2021/08/06 07:19:58;;;;;;;;;;;;;;;-142.75;49.85;74897.44;5070766;28;19917;-75
2021/08/06 07:22:23;;;;;;;;;;;;;;;-142.75;51.33;74891.53;5072079;28;19940;-74
2021/08/06 07:24:49;;;;;;;;;;;;;;;-142.75;51.29;74875.78;5071995;28;19924;-74
2021/08/06 07:27:14;;;;;;;;;;;;;;;-142.75;51.78;74842.34;5064831;28;19956;-74
2021/08/06 07:29:39;;;;;;;;;;;;;;;-142.75;50.45;74814.78;5052121;28;19960;-75
2021/08/06 07:32:04;;;;;;;;;;;;;;;-142.75;49.74;74830.53;5050932;28;19979;-75
2021/08/06 07:34:30;;;;;;;;;;;;;;;-142.75;49.17;74728.22;5052082;28;19923;-74
2021/08/06 07:36:55;;;;;;;;;;;;;;;-142.75;46.97;74702.66;5056716;28;19944;-75
2021/08/06 07:39:20;;;;;;;;;;;;;;;-142.75;46.45;74647.56;5072264;28;20289;-75
2021/08/06 07:41:46;;;;;;;;;;;;;;;-142.75;47.13;74726.25;5060728;28;19920;-74
2021/08/06 07:44:11;;;;;;;;;;;;;;;-142.75;48.31;74830.53;5072071;28;20007;-74
2021/08/06 07:46:36;;;;;;;;;;;;;;;-142.75;48.67;74740.03;5071704;28;20015;-75
2021/08/06 07:49:01;;;;;;;;;;;;;;;-142.75;47.30;74618.03;5070681;28;19920;-74
2021/08/06 07:51:26;;;;;;;;;;;;;;;-142.75;45.84;74625.91;5066988;28;20523;-75
2021/08/06 07:53:51;;;;;;;;;;;;;;;-142.75;44.93;74519.66;5057397;28;20343;-75
2021/08/06 07:56:17;;;;;;;;;;;;;;;-142.75;44.44;74602.31;5069943;28;19929;-75
2021/08/06 07:58:42;;;;;;;;;;;;;;;-142.75;45.88;74677.06;5071497;28;19924;-75
2021/08/06 08:01:07;;;;;;;;;;;;;;;-142.75;46.78;74718.38;5071253;28;20275;-74
2021/08/06 08:03:32;;;;;;;;;;;;;;;-142.75;46.92;74734.13;5071360;28;19916;-75
2021/08/06 08:05:58;;;;;;;;;;;;;;;-142.75;47.17;74769.53;5066618;28;19925;-75
2021/08/06 08:08:23;;;;;;;;;;;;;;;-142.75;47.59;74716.41;5069712;28;19920;-75
2021/08/06 08:10:49;;;;;;;;;;;;;;;-142.75;47.31;74747.91;5050992;28;19924;-74
2021/08/06 08:13:14;;;;;;;;;;;;;;;-142.75;46.53;74677.06;5060979;28;19968;-74
2021/08/06 08:15:39;;;;;;;;;;;;;;;-142.75;46.03;74710.50;5058630;28;20015;-75
2021/08/06 08:18:05;;;;;;;;;;;;;;;-142.75;45.72;74621.97;5059004;28;19927;-75
2021/08/06 08:20:30;;;;;;;;;;;;;;;-142.75;46.29;74681.00;5061514;28;20012;-74
2021/08/06 08:22:55;;;;;;;;;;;;;;;-142.75;47.45;74759.72;5056307;28;19952;-75
2021/08/06 08:25:21;;;;;;;;;;;;;;;-142.75;47.81;74751.84;5069377;28;19925;-74
2021/08/06 08:27:46;;;;;;;;;;;;;;;-142.75;47.46;74747.91;5070459;28;20402;-75
2021/08/06 08:30:11;;;;;;;;;;;;;;;-142.75;48.03;74716.41;5069135;28;20003;-74
2021/08/06 08:32:38;;;;;;;;;;;;;;;-142.75;47.14;74724.28;5068098;28;20007;-74
2021/08/06 08:35:03;;;;;;;;;;;;;;;-142.75;47.13;74761.66;5051074;28;19925;-74
2021/08/06 08:37:28;;;;;;;;;;;;;;;-142.75;48.63;74858.09;5049498;28;19929;-75
2021/08/06 08:39:53;;;;;;;;;;;;;;;-142.75;49.57;74915.16;5057234;28;19923;-74
2021/08/06 08:42:21;;;;;;;;;;;;;;;-142.75;50.79;74942.69;5056555;28;20523;-74
2021/08/06 08:44:46;;;;;;;;;;;;;;;-142.75;50.69;74960.41;5061158;28;19923;-75
2021/08/06 08:47:13;;;;;;;;;;;;;;;-142.75;51.43;74987.94;5070710;28;19917;-74
2021/08/06 08:49:39;;;;;;;;;;;;;;;-142.75;50.14;74812.81;5051044;28;19925;-76
2021/08/06 08:52:04;;;;;;;;;;;;;;;-142.75;47.36;74614.09;5050241;28;19924;-74
2021/08/06 08:54:29;;;;;;;;;;;;;;;-142.75;43.40;74472.44;5050017;28;20353;-75
2021/08/06 08:56:55;;;;;;;;;;;;;;;-142.75;44.13;74433.09;5059960;28;19920;-74
2021/08/06 08:59:20;;;;;;;;;;;;;;;-142.75;42.26;74385.88;5055534;28;20302;-74
2021/08/06 09:01:45;;;;;;;;;;;;;;;-142.75;42.80;74421.28;5060598;28;20302;-75
2021/08/06 09:04:22;;;;;;;;;;;;;;;-142.75;42.88;74547.22;5056266;28;20301;-75
2021/08/06 09:06:48;;;;;;;;;;;;;;;-142.75;44.41;74690.84;5051880;28;19970;-75
2021/08/06 09:09:15;;;;;;;;;;;;;;;-142.75;44.46;74543.28;5049909;28;19967;-75
2021/08/06 09:11:40;;;;;;;;;;;;;;;-142.75;42.62;74460.63;5050635;28;19924;-73
2021/08/06 09:14:35;;;;;;;;;;;;;;;-142.75;42.14;74535.41;5051456;28;19932;-74
2021/08/06 09:17:00;;;;;;;;;;;;;;;-142.75;44.45;74669.19;5037955;28;19928;-74
2021/08/06 09:19:26;;;;;;;;;;;;;;;-142.75;45.10;74588.53;5051159;28;19917;-74
2021/08/06 09:21:51;;;;;;;;;;;;;;;-142.75;44.25;74598.38;5069477;28;19916;-75
2021/08/06 09:24:16;;;;;;;;;;;;;;;-142.75;44.53;74651.50;5056185;28;20313;-74
2021/08/06 09:26:43;;;;;;;;;;;;;;;-142.75;45.98;74820.69;5053480;28;20003;-74
2021/08/06 09:29:19;;;;;;;;;;;;;;;-142.75;48.19;74873.81;5051045;28;19921;-73
2021/08/06 09:31:50;;;;;;;;;;;;;;;-142.75;50.88;74917.13;5066254;28;19916;-75
2021/08/06 09:34:18;;;;;;;;;;;;;;;-142.75;51.02;74934.81;5070982;28;20318;-76
2021/08/06 09:36:54;;;;;;;;;;;;;;;-142.75;51.87;74879.72;5054094;28;19924;-75
2021/08/06 09:39:21;;;;;;;;;;;;;;;-142.75;49.73;74852.19;5067131;28;19917;-76
2021/08/06 09:41:46;;;;;;;;;;;;;;;-142.75;49.36;74846.28;5060254;28;20027;-76
2021/08/06 09:44:15;;;;;;;;;;;;;;;-142.75;49.70;74834.47;5070374;28;20019;-75
2021/08/06 09:46:41;;;;;;;;;;;;;;;-142.75;49.45;74834.47;5050294;28;19916;-75
2021/08/06 09:49:06;;;;;;;;;;;;;;;-142.75;49.13;74873.81;5060181;28;19973;-76
2021/08/06 09:51:35;;;;;;;;;;;;;;;-142.75;49.25;74917.13;5053854;28;19920;-76
2021/08/06 09:54:00;;;;;;;;;;;;;;;-142.75;50.32;74917.13;5050804;28;20405;-75
2021/08/06 09:56:25;;;;;;;;;;;;;;;-142.75;51.05;74944.66;5050492;28;20023;-76
2021/08/06 09:58:58;;;;;;;;;;;;;;;-142.75;50.39;74854.16;5050923;28;19923;-75
2021/08/06 10:01:23;;;;;;;;;;;;;;;-142.75;50.11;74769.53;5068985;28;19921;-76
2021/08/06 10:03:48;;;;;;;;;;;;;;;-142.75;48.22;74755.78;5069349;28;20317;-76
2021/08/06 10:06:20;;;;;;;;;;;;;;;-142.75;47.19;74649.53;5069621;28;20006;-75
2021/08/06 10:08:46;;;;;;;;;;;;;;;-142.75;45.96;74476.38;5055715;28;19917;-75
2021/08/06 10:11:12;;;;;;;;;;;;;;;-142.75;41.70;74313.09;5050418;28;19920;-76
2021/08/06 10:13:38;;;;;;;;;;;;;;;-142.75;41.63;74389.81;5061548;28;19916;-76
2021/08/06 10:16:03;;;;;;;;;;;;;;;-142.75;42.04;74372.09;5067587;28;19962;-75
2021/08/06 10:18:29;;;;;;;;;;;;;;;-142.75;43.78;74381.94;5067796;28;19920;-76
2021/08/06 10:20:54;;;;;;;;;;;;;;;-142.75;43.36;74315.06;5064139;28;19924;-75
2021/08/06 10:23:20;;;;;;;;;;;;;;;-142.75;41.13;74232.44;5059434;28;19927;-76
2021/08/06 10:25:45;;;;;;;;;;;;;;;-142.75;40.06;74244.22;5070222;28;20302;-75
2021/08/06 10:28:11;;;;;;;;;;;;;;;-142.75;40.47;74378.00;5070201;28;20286;-75
2021/08/06 10:30:37;;;;;;;;;;;;;;;-142.75;41.80;74503.94;5069971;28;19920;-76
2021/08/06 10:33:07;;;;;;;;;;;;;;;-142.75;45.19;74645.59;5070222;28;19916;-75
2021/08/06 10:35:43;;;;;;;;;;;;;;;-142.75;48.74;74751.84;5072849;28;19917;-80
2021/08/06 10:38:09;;;;;;;;;;;;;;;-142.75;50.59;74844.31;5075324;28;19924;-83
2021/08/06 10:40:34;;;;;;;;;;;;;;;-142.75;51.83;74917.13;5076292;28;19923;-82
2021/08/06 10:43:08;;;;;;;;;;;;;;;-142.75;53.62;74968.28;5073730;28;19924;-81
2021/08/06 10:45:45;;;;;;;;;;;;;;;-142.75;53.85;75041.09;5058325;28;20021;-82
2021/08/06 10:48:26;;;;;;;;;;;;;;;-142.75;55.54;75046.97;5073616;28;19917;-80
2021/08/06 10:51:11;;;;;;;;;;;;;;;-142.75;56.43;74985.97;5075160;28;19916;-78
2021/08/06 10:53:37;;;;;;;;;;;;;;;-142.75;54.57;74932.84;5048442;28;19921;-81
2021/08/06 10:56:18;;;;;;;;;;;;;;;-142.75;54.51;74881.69;5060111;28;20386;-79
2021/08/06 10:58:49;;;;;;;;;;;;;;;-142.75;54.45;74712.47;5075689;28;19916;-78
2021/08/06 11:01:27;;;;;;;;;;;;;;;-142.75;52.37;74649.53;5061722;28;19916;-79
2021/08/06 11:04:16;;;;;;;;;;;;;;;-142.75;50.27;74714.44;5077643;28;19924;-79
2021/08/06 11:06:41;;;;;;;;;;;;;;;-142.75;50.61;74686.91;5045176;28;19917;-79
2021/08/06 11:09:06;;;;;;;;;;;;;;;-142.75;50.85;74789.22;5058673;28;19963;-76
2021/08/06 11:11:46;;;;;;;;;;;;;;;-142.75;52.65;74814.78;5069737;28;19916;-78
2021/08/06 11:14:15;;;;;;;;;;;;;;;-142.75;52.10;74907.28;5071610;28;19923;-78
2021/08/06 11:16:56;;;;;;;;;;;;;;;-142.75;53.09;74913.19;5060200;28;19936;-78
2021/08/06 11:19:41;;;;;;;;;;;;;;;-142.75;53.06;74923.03;5072327;28;20297;-81
2021/08/06 11:22:21;;;;;;;;;;;;;;;-142.75;53.95;74921.06;5056451;28;19916;-77
2021/08/06 11:24:47;;;;;;;;;;;;;;;-142.75;53.74;74946.63;5055433;28;19948;-80
2021/08/06 11:27:13;;;;;;;;;;;;;;;-142.75;53.65;74976.16;5055553;28;19947;-78
2021/08/06 11:29:40;;;;;;;;;;;;;;;-142.75;53.82;75050.91;5075079;28;19917;-77
2021/08/06 11:32:13;;;;;;;;;;;;;;;-142.75;54.48;75104.03;5074432;28;19962;-77
2021/08/06 11:35:08;;;;;;;;;;;;;;;-142.75;56.23;75133.56;5063547;28;20015;-77
2021/08/06 11:37:45;;;;;;;;;;;;;;;-142.75;57.27;75137.50;5041353;28;20004;-77
2021/08/06 11:40:11;;;;;;;;;;;;;;;-142.75;56.03;75180.78;5089561;22;19928;-79
2021/08/06 11:42:37;;;;;;;;;;;;;;;-142.75;56.98;75200.47;5087863;28;19924;-79
2021/08/06 11:45:03;;;;;;;;;;;;;;;-142.75;58.04;75190.63;5090898;28;20583;-80
2021/08/06 11:47:34;;;;;;;;;;;;;;;-142.75;58.25;75161.13;5093263;28;19920;-80
2021/08/06 11:49:59;;;;;;;;;;;;;;;-142.75;58.44;75082.41;5084988;28;20382;-78
2021/08/06 11:52:35;;;;;;;;;;;;;;;-142.75;55.97;75011.56;5084696;28;19923;-77
2021/08/06 11:55:00;;;;;;;;;;;;;;;-142.75;55.56;75007.63;5083443;28;19948;-78
2021/08/06 11:57:40;;;;;;;;;;;;;;;-142.75;54.83;75027.31;5083291;28;19983;-79
2021/08/06 12:00:18;;;;;;;;;;;;;;;-142.75;53.81;75064.69;5081758;28;19977;-78
2021/08/06 12:02:43;;;;;;;;;;;;;;;-142.75;54.31;75007.63;5080264;28;20397;-79
2021/08/06 12:05:24;;;;;;;;;;;;;;;-142.75;53.58;74978.13;5080930;28;19916;-77
2021/08/06 12:07:49;;;;;;;;;;;;;;;-142.75;52.84;74883.66;5080267;28;19920;-80
2021/08/06 12:10:14;;;;;;;;;;;;;;;-142.75;52.00;74834.47;5079421;28;20416;-79
2021/08/06 12:12:39;;;;;;;;;;;;;;;-142.75;51.48;74812.81;5079554;28;19916;-81
2021/08/06 12:15:18;;;;;;;;;;;;;;;-142.75;50.27;74806.94;5087925;28;20002;-80
2021/08/06 12:17:43;;;;;;;;;;;;;;;-142.75;50.85;74797.09;5080929;28;19920;-80
2021/08/06 12:20:08;;;;;;;;;;;;;;;-142.75;49.73;74832.50;5076679;28;19917;-80
2021/08/06 12:22:34;;;;;;;;;;;;;;;-142.75;50.00;74795.13;5077738;28;19979;-79
2021/08/06 12:25:10;;;;;;;;;;;;;;;-142.75;49.23;74862.03;5084909;28;19940;-78
2021/08/06 12:27:36;;;;;;;;;;;;;;;-142.75;49.60;74844.31;5071299;28;19923;-80